Cala Saona — EBZQ — position and weather

sailwx.info

Track history (hours):
 
Tides and Currents Weather Stations Pressure Air Temp Water Temp Dewpoint Dewpoint Depression Visibility Wind Speed Wind Dir Waves Ship Positions

Cala Saona

Last reported at 2017-Oct-01 17:35 UTC. Time now 2017-Oct-19 11:17 UTC.
Position N 38°55' E 001°26'.
Warning: this ship's position is 17 days out of date.

Length 28 m.

MMSI: 224079190.

Date/timePositionNaut miles runAvg speedWind from/ knotsBaromVisibWave heightAir tempDewpointWater temp
2017-Oct-01 17:35N 38°55' E 001°26'0 0.0
2017-Oct-01 17:29N 38°55' E 001°26'0 0.7
2017-Oct-01 16:59N 38°55' E 001°26'1 0.6
2017-Oct-01 15:15N 38°54' E 001°27'1 4.1
2017-Oct-01 14:59N 38°55' E 001°26'0 0.3
2017-Oct-01 14:30N 38°55' E 001°26'0 0.0
2017-Sep-29 17:04N 38°55' E 001°26'0 0.0
2017-Sep-29 17:00N 38°55' E 001°26'4 6.8
2017-Sep-29 16:29N 38°51' E 001°26'2 1.7
2017-Sep-29 15:11N 38°54' E 001°26'1 6.3
2017-Sep-29 14:59N 38°55' E 001°26'0 0.4
2017-Sep-29 14:28N 38°55' E 001°26'0 0.2
2017-Sep-29 14:00N 38°55' E 001°26'0 0.3
2017-Sep-29 13:28N 38°55' E 001°26'0 0.0
2017-Sep-29 12:58N 38°55' E 001°26'0 0.0
2017-Sep-29 12:28N 38°55' E 001°26'0 0.0
2017-Sep-29 12:00N 38°55' E 001°26'1 0.6
2017-Sep-29 10:11N 38°54' E 001°26'1 5.7
2017-Sep-29 10:00N 38°55' E 001°26'1 0.4
2017-Sep-29 08:10N 38°54' E 001°26'1 4.2
2017-Sep-29 07:58N 38°55' E 001°26'0 0.6
2017-Sep-29 07:30N 38°55' E 001°26'0 0.0
2017-Sep-29 07:00N 38°55' E 001°26'0 0.0
2017-Sep-28 17:04N 38°55' E 001°26'0 0.1
2017-Sep-28 16:59N 38°55' E 001°26'2 0.9
2017-Sep-28 15:14N 38°53' E 001°26'2 5.8
2017-Sep-28 14:58N 38°55' E 001°26'0 0.6
2017-Sep-28 14:28N 38°55' E 001°26'0 0.0
2017-Sep-28 13:58N 38°55' E 001°26'0 0.0
2017-Sep-28 13:28N 38°55' E 001°26'0 0.0
2017-Sep-28 12:58N 38°55' E 001°26'0 0.0
2017-Sep-28 12:28N 38°55' E 001°26'0 0.0
2017-Sep-28 11:56N 38°55' E 001°26'1 0.7
2017-Sep-28 10:13N 38°54' E 001°26'1 4.7
2017-Sep-28 09:59N 38°55' E 001°26'1 0.4
2017-Sep-28 08:09N 38°54' E 001°27'1 3.9
2017-Sep-28 07:58N 38°55' E 001°26'0 0.6
2017-Sep-28 07:30N 38°55' E 001°26'0 0.0
2017-Sep-28 07:00N 38°55' E 001°26'0 0.0
2017-Sep-27 17:05N 38°55' E 001°26'0 0.1
2017-Sep-27 17:00N 38°55' E 001°27'1 0.6
2017-Sep-27 15:11N 38°54' E 001°26'1 5.1
2017-Sep-27 15:00N 38°55' E 001°26'0 0.4
2017-Sep-27 14:28N 38°55' E 001°26'0 0.1
2017-Sep-27 12:35N 38°55' E 001°26'0 0.0
2017-Sep-27 12:29N 38°55' E 001°26'0 0.0
2017-Sep-27 11:58N 38°55' E 001°26'1 0.7
2017-Sep-27 10:12N 38°54' E 001°27'1 5.0
2017-Sep-27 09:58N 38°55' E 001°26'1 0.4
2017-Sep-27 08:12N 38°54' E 001°27'1 2.9
2017-Sep-27 07:58N 38°55' E 001°26'0 0.6
2017-Sep-27 07:30N 38°55' E 001°26'0 0.0
2017-Sep-27 07:00N 38°55' E 001°26'0 0.0
2017-Sep-27 06:30N 38°55' E 001°26'0 0.0
2017-Sep-26 17:04N 38°55' E 001°26'0 1.4
2017-Sep-26 17:00N 38°55' E 001°26'2 1.0
2017-Sep-26 15:14N 38°53' E 001°26'2 6.7
2017-Sep-26 15:00N 38°55' E 001°26'0 0.7
2017-Sep-26 14:29N 38°55' E 001°26'0 0.0
2017-Sep-26 14:00N 38°55' E 001°26'0 0.0
2017-Sep-26 13:29N 38°55' E 001°26'0 0.0
2017-Sep-26 13:00N 38°55' E 001°26'0 0.0
2017-Sep-26 12:30N 38°55' E 001°26'0 0.2
2017-Sep-26 11:59N 38°55' E 001°26'1 0.4
2017-Sep-26 10:11N 38°54' E 001°27'1 4.0
2017-Sep-26 09:59N 38°55' E 001°26'1 0.6
2017-Sep-26 08:13N 38°54' E 001°26'1 4.2
2017-Sep-26 07:59N 38°55' E 001°26'0 0.6
2017-Sep-26 07:28N 38°55' E 001°26'0 0.0
2017-Sep-26 06:58N 38°55' E 001°26'0 0.0
2017-Sep-25 17:04N 38°55' E 001°26'0 2.1
2017-Sep-25 17:00N 38°55' E 001°26'1 0.2
2017-Sep-25 11:35N 38°54' E 001°27'0 0.3
2017-Sep-25 10:10N 38°54' E 001°27'1 3.4
2017-Sep-25 09:58N 38°55' E 001°26'1 0.5
2017-Sep-25 08:12N 38°54' E 001°26'1 3.8
2017-Sep-25 08:00N 38°55' E 001°26'0 0.5
2017-Sep-25 07:30N 38°55' E 001°26'0 0.2
2017-Sep-25 06:58N 38°55' E 001°26'0 0.0
2017-Sep-24 17:02N 38°55' E 001°26'0 0.8
2017-Sep-24 16:59N 38°55' E 001°27'1 0.6
2017-Sep-24 15:10N 38°54' E 001°27'1 5.5
2017-Sep-24 14:58N 38°55' E 001°26'0 0.1
2017-Sep-24 12:00N 38°55' E 001°26'1 0.6
2017-Sep-24 10:11N 38°54' E 001°26'1 5.8
2017-Sep-24 10:00N 38°55' E 001°26'1 0.3
2017-Sep-24 08:09N 38°54' E 001°27'1 3.2
2017-Sep-24 07:58N 38°55' E 001°26'0 0.0
2017-Sep-24 07:29N 38°55' E 001°26'0 0.6
2017-Sep-24 06:59N 38°55' E 001°26'  
Track history (hours):
 
Tides and Currents Weather Stations Pressure Air Temp Water Temp Dewpoint Dewpoint Depression Visibility Wind Speed Wind Dir Waves Ship Positions

Cala Saona

Last reported at 2017-Oct-01 17:35 UTC. Time now 2017-Oct-19 11:17 UTC.
Position N 38°55' E 001°26'.
Warning: this ship's position is 17 days out of date.

Length 28 m.

MMSI: 224079190.

Date/timePositionNaut miles runAvg speedWind from/ knotsBaromVisibWave heightAir tempDewpointWater temp
2017-Oct-01 17:35N 38°55' E 001°26'0 0.0
2017-Oct-01 17:29N 38°55' E 001°26'0 0.7
2017-Oct-01 16:59N 38°55' E 001°26'1 0.6
2017-Oct-01 15:15N 38°54' E 001°27'1 4.1
2017-Oct-01 14:59N 38°55' E 001°26'0 0.3
2017-Oct-01 14:30N 38°55' E 001°26'0 0.0
2017-Sep-29 17:04N 38°55' E 001°26'0 0.0
2017-Sep-29 17:00N 38°55' E 001°26'4 6.8
2017-Sep-29 16:29N 38°51' E 001°26'2 1.7
2017-Sep-29 15:11N 38°54' E 001°26'1 6.3
2017-Sep-29 14:59N 38°55' E 001°26'0 0.4
2017-Sep-29 14:28N 38°55' E 001°26'0 0.2
2017-Sep-29 14:00N 38°55' E 001°26'0 0.3
2017-Sep-29 13:28N 38°55' E 001°26'0 0.0
2017-Sep-29 12:58N 38°55' E 001°26'0 0.0
2017-Sep-29 12:28N 38°55' E 001°26'0 0.0
2017-Sep-29 12:00N 38°55' E 001°26'1 0.6
2017-Sep-29 10:11N 38°54' E 001°26'1 5.7
2017-Sep-29 10:00N 38°55' E 001°26'1 0.4
2017-Sep-29 08:10N 38°54' E 001°26'1 4.2
2017-Sep-29 07:58N 38°55' E 001°26'0 0.6
2017-Sep-29 07:30N 38°55' E 001°26'0 0.0
2017-Sep-29 07:00N 38°55' E 001°26'0 0.0
2017-Sep-28 17:04N 38°55' E 001°26'0 0.1
2017-Sep-28 16:59N 38°55' E 001°26'2 0.9
2017-Sep-28 15:14N 38°53' E 001°26'2 5.8
2017-Sep-28 14:58N 38°55' E 001°26'0 0.6
2017-Sep-28 14:28N 38°55' E 001°26'0 0.0
2017-Sep-28 13:58N 38°55' E 001°26'0 0.0
2017-Sep-28 13:28N 38°55' E 001°26'0 0.0
2017-Sep-28 12:58N 38°55' E 001°26'0 0.0
2017-Sep-28 12:28N 38°55' E 001°26'0 0.0
2017-Sep-28 11:56N 38°55' E 001°26'1 0.7
2017-Sep-28 10:13N 38°54' E 001°26'1 4.7
2017-Sep-28 09:59N 38°55' E 001°26'1 0.4
2017-Sep-28 08:09N 38°54' E 001°27'1 3.9
2017-Sep-28 07:58N 38°55' E 001°26'0 0.6
2017-Sep-28 07:30N 38°55' E 001°26'0 0.0
2017-Sep-28 07:00N 38°55' E 001°26'0 0.0
2017-Sep-27 17:05N 38°55' E 001°26'0 0.1
2017-Sep-27 17:00N 38°55' E 001°27'1 0.6
2017-Sep-27 15:11N 38°54' E 001°26'1 5.1
2017-Sep-27 15:00N 38°55' E 001°26'0 0.4
2017-Sep-27 14:28N 38°55' E 001°26'0 0.1
2017-Sep-27 12:35N 38°55' E 001°26'0 0.0
2017-Sep-27 12:29N 38°55' E 001°26'0 0.0
2017-Sep-27 11:58N 38°55' E 001°26'1 0.7
2017-Sep-27 10:12N 38°54' E 001°27'1 5.0
2017-Sep-27 09:58N 38°55' E 001°26'1 0.4
2017-Sep-27 08:12N 38°54' E 001°27'1 2.9
2017-Sep-27 07:58N 38°55' E 001°26'0 0.6
2017-Sep-27 07:30N 38°55' E 001°26'0 0.0
2017-Sep-27 07:00N 38°55' E 001°26'0 0.0
2017-Sep-27 06:30N 38°55' E 001°26'0 0.0
2017-Sep-26 17:04N 38°55' E 001°26'0 1.4
2017-Sep-26 17:00N 38°55' E 001°26'2 1.0
2017-Sep-26 15:14N 38°53' E 001°26'2 6.7
2017-Sep-26 15:00N 38°55' E 001°26'0 0.7
2017-Sep-26 14:29N 38°55' E 001°26'0 0.0
2017-Sep-26 14:00N 38°55' E 001°26'0 0.0
2017-Sep-26 13:29N 38°55' E 001°26'0 0.0
2017-Sep-26 13:00N 38°55' E 001°26'0 0.0
2017-Sep-26 12:30N 38°55' E 001°26'0 0.2
2017-Sep-26 11:59N 38°55' E 001°26'1 0.4
2017-Sep-26 10:11N 38°54' E 001°27'1 4.0
2017-Sep-26 09:59N 38°55' E 001°26'1 0.6
2017-Sep-26 08:13N 38°54' E 001°26'1 4.2
2017-Sep-26 07:59N 38°55' E 001°26'0 0.6
2017-Sep-26 07:28N 38°55' E 001°26'0 0.0
2017-Sep-26 06:58N 38°55' E 001°26'0 0.0
2017-Sep-25 17:04N 38°55' E 001°26'0 2.1
2017-Sep-25 17:00N 38°55' E 001°26'1 0.2
2017-Sep-25 11:35N 38°54' E 001°27'0 0.3
2017-Sep-25 10:10N 38°54' E 001°27'1 3.4
2017-Sep-25 09:58N 38°55' E 001°26'1 0.5
2017-Sep-25 08:12N 38°54' E 001°26'1 3.8
2017-Sep-25 08:00N 38°55' E 001°26'0 0.5
2017-Sep-25 07:30N 38°55' E 001°26'0 0.2
2017-Sep-25 06:58N 38°55' E 001°26'0 0.0
2017-Sep-24 17:02N 38°55' E 001°26'0 0.8
2017-Sep-24 16:59N 38°55' E 001°27'1 0.6
2017-Sep-24 15:10N 38°54' E 001°27'1 5.5
2017-Sep-24 14:58N 38°55' E 001°26'0 0.1
2017-Sep-24 12:00N 38°55' E 001°26'1 0.6
2017-Sep-24 10:11N 38°54' E 001°26'1 5.8
2017-Sep-24 10:00N 38°55' E 001°26'1 0.3
2017-Sep-24 08:09N 38°54' E 001°27'1 3.2
2017-Sep-24 07:58N 38°55' E 001°26'0 0.0
2017-Sep-24 07:29N 38°55' E 001°26'0 0.6
2017-Sep-24 06:59N 38°55' E 001°26'  

Dump ship's entire track history